createdAt,value
2023-03-10T00:01:02.795Z,11.05
2023-03-10T00:03:27.187Z,11.77
2023-03-10T00:05:51.597Z,11.15
2023-03-10T00:08:16.089Z,13.65
2023-03-10T00:10:42.050Z,10.27
2023-03-10T00:13:06.829Z,12.65
2023-03-10T00:15:31.697Z,12.80
2023-03-10T00:17:56.240Z,14.38
2023-03-10T00:20:20.905Z,13.07
2023-03-10T00:22:45.416Z,12.10
2023-03-10T00:25:11.716Z,13.48
2023-03-10T00:27:38.533Z,13.40
2023-03-10T00:30:03.283Z,11.98
2023-03-10T00:32:28.038Z,13.13
2023-03-10T00:34:52.774Z,10.93
2023-03-10T00:37:19.630Z,13.27
2023-03-10T00:39:46.249Z,11.90
2023-03-10T00:42:10.886Z,11.65
2023-03-10T00:44:36.758Z,12.38
2023-03-10T00:47:01.127Z,14.30
2023-03-10T00:49:26.236Z,13.23
2023-03-10T00:51:50.655Z,14.20
2023-03-10T00:54:16.457Z,12.25
2023-03-10T00:56:42.093Z,12.25
2023-03-10T00:59:07.500Z,11.27
2023-03-10T01:01:35.851Z,12.18
2023-03-10T01:04:02.589Z,14.68
2023-03-10T01:06:28.917Z,13.75
2023-03-10T01:08:53.596Z,17.88
2023-03-10T01:11:19.025Z,13.65
2023-03-10T01:13:44.527Z,16.38
2023-03-10T01:16:09.386Z,13.60
2023-03-10T01:18:35.388Z,15.18
2023-03-10T01:21:00.590Z,15.07
2023-03-10T01:23:26.374Z,13.98
2023-03-10T01:25:51.193Z,16.27
2023-03-10T01:28:17.353Z,15.93
2023-03-10T01:30:42.089Z,17.05
2023-03-10T01:33:06.721Z,19.02
2023-03-10T01:35:33.182Z,16.35
2023-03-10T01:37:58.850Z,20.35
2023-03-10T01:40:23.437Z,17.00
2023-03-10T01:42:47.899Z,16.48
2023-03-10T01:45:51.119Z,16.67
2023-03-10T01:48:18.265Z,14.32
2023-03-10T01:50:45.903Z,13.95
2023-03-10T01:53:11.349Z,14.50
2023-03-10T01:55:41.361Z,14.57
2023-03-10T02:00:31.574Z,15.38
2023-03-10T02:03:03.234Z,17.13
2023-03-10T02:05:30.635Z,19.40
2023-03-10T02:07:57.660Z,16.27
2023-03-10T02:10:22.317Z,16.65
2023-03-10T02:12:49.846Z,14.65
2023-03-10T02:15:14.829Z,18.05
2023-03-10T02:17:41.327Z,16.23
2023-03-10T02:20:23.378Z,17.60
2023-03-10T02:22:49.763Z,14.68
2023-03-10T02:25:30.028Z,15.57
2023-03-10T02:27:56.384Z,16.85
2023-03-10T02:30:25.251Z,14.63
2023-03-10T02:32:54.302Z,17.10
2023-03-10T02:35:20.221Z,16.92
2023-03-10T02:37:51.692Z,14.85
2023-03-10T02:40:42.539Z,14.30
2023-03-10T02:43:18.828Z,14.60
2023-03-10T02:45:47.848Z,14.20
2023-03-10T02:48:14.791Z,14.63
2023-03-10T02:50:42.019Z,16.27
2023-03-10T02:53:12.889Z,17.38
2023-03-10T02:55:37.533Z,13.90
2023-03-10T02:58:02.650Z,19.05
2023-03-10T03:00:28.994Z,17.73
2023-03-10T03:02:53.442Z,19.42
2023-03-10T03:05:18.652Z,15.30
2023-03-10T03:07:43.006Z,17.40
2023-03-10T03:10:08.736Z,19.67
2023-03-10T03:12:33.513Z,16.30
2023-03-10T03:14:58.094Z,19.02
2023-03-10T03:17:24.373Z,19.60
2023-03-10T03:19:48.958Z,16.38
2023-03-10T03:22:13.388Z,16.10
2023-03-10T03:24:37.900Z,18.73
2023-03-10T03:27:02.492Z,20.67
2023-03-10T03:29:27.231Z,18.70
2023-03-10T03:31:52.166Z,17.02
2023-03-10T03:34:22.371Z,18.53
2023-03-10T03:39:20.376Z,21.98
2023-03-10T03:41:53.298Z,21.80
2023-03-10T03:44:22.245Z,26.60
2023-03-10T03:46:47.926Z,32.00
2023-03-10T03:49:13.059Z,29.70
2023-03-10T03:51:39.076Z,32.90
2023-03-10T03:54:04.307Z,44.67
2023-03-10T03:56:32.832Z,44.05
2023-03-10T03:58:59.376Z,48.85
2023-03-10T04:01:24.147Z,57.60
2023-03-10T04:03:52.553Z,48.15
2023-03-10T04:06:16.972Z,54.72
2023-03-10T04:08:43.731Z,50.17
2023-03-10T04:11:08.301Z,51.88
2023-03-10T04:13:35.203Z,51.42
2023-03-10T04:16:00.767Z,49.35
2023-03-10T04:18:30.561Z,51.95
2023-03-10T04:20:55.098Z,63.47
2023-03-10T04:23:20.781Z,55.90
2023-03-10T04:25:47.531Z,58.42
2023-03-10T04:28:13.561Z,57.42
2023-03-10T04:30:38.241Z,59.58
2023-03-10T04:33:03.250Z,58.20
2023-03-10T04:35:30.528Z,56.15
2023-03-10T04:37:58.479Z,55.83
2023-03-10T04:40:23.965Z,57.97
2023-03-10T04:42:51.025Z,57.10
2023-03-10T04:45:15.686Z,51.40
2023-03-10T04:47:42.641Z,55.47
2023-03-10T04:50:08.346Z,55.97
2023-03-10T04:52:33.092Z,51.33
2023-03-10T04:54:57.728Z,54.00
2023-03-10T04:57:24.581Z,50.30
2023-03-10T04:59:53.208Z,43.80
2023-03-10T05:02:19.141Z,45.95
2023-03-10T05:04:44.833Z,41.67
2023-03-10T05:07:09.327Z,47.90
2023-03-10T05:09:42.630Z,44.28
2023-03-10T05:12:07.924Z,40.97
2023-03-10T05:14:34.439Z,41.30
2023-03-10T05:17:00.397Z,46.17
2023-03-10T05:19:28.769Z,39.13
2023-03-10T05:21:55.244Z,37.55
2023-03-10T05:24:19.793Z,35.05
2023-03-10T05:26:45.584Z,32.65
2023-03-10T05:29:10.104Z,37.05
2023-03-10T05:31:42.790Z,40.42
2023-03-10T05:36:39.048Z,38.50
2023-03-10T05:39:05.951Z,40.38
2023-03-10T05:41:34.210Z,39.08
2023-03-10T05:43:58.886Z,42.25
2023-03-10T05:46:23.981Z,45.60
2023-03-10T05:48:52.334Z,43.78
2023-03-10T05:51:18.296Z,52.10
2023-03-10T05:53:44.052Z,47.40
2023-03-10T05:56:16.245Z,48.95
2023-03-10T05:58:42.313Z,47.83
2023-03-10T06:01:08.691Z,50.42
2023-03-10T06:03:34.880Z,48.53
2023-03-10T06:06:00.114Z,48.03
2023-03-10T06:08:26.720Z,49.28
2023-03-10T06:10:51.354Z,51.10
2023-03-10T06:13:15.900Z,51.33
2023-03-10T06:15:40.542Z,50.50
2023-03-10T06:18:05.185Z,52.35
2023-03-10T06:20:29.535Z,48.33
2023-03-10T06:22:54.515Z,46.45
2023-03-10T06:25:20.603Z,50.30
2023-03-10T06:27:44.970Z,52.30
2023-03-10T06:30:10.334Z,47.30
2023-03-10T06:32:36.238Z,47.53
2023-03-10T06:35:01.098Z,45.30
2023-03-10T06:37:25.471Z,41.70
2023-03-10T06:39:49.951Z,43.13
2023-03-10T06:42:24.804Z,41.45
2023-03-10T06:44:52.382Z,44.20
2023-03-10T06:47:16.778Z,51.10
2023-03-10T06:49:41.304Z,45.33
2023-03-10T06:52:06.215Z,44.97
2023-03-10T06:54:30.763Z,39.00
2023-03-10T06:56:55.080Z,39.42
2023-03-10T06:59:23.908Z,41.10
2023-03-10T07:01:48.325Z,35.40
2023-03-10T07:04:13.216Z,37.85
2023-03-10T07:06:37.725Z,33.83
2023-03-10T07:09:02.244Z,38.63
2023-03-10T07:11:27.665Z,34.63
2023-03-10T07:13:54.700Z,41.10
2023-03-10T07:16:21.185Z,39.45
2023-03-10T07:18:45.854Z,35.22
2023-03-10T07:21:11.750Z,39.20
2023-03-10T07:23:36.169Z,36.85
2023-03-10T07:26:00.819Z,34.03
2023-03-10T07:28:25.792Z,29.80
2023-03-10T07:30:50.696Z,32.10
2023-03-10T07:33:17.233Z,34.20
2023-03-10T07:35:41.800Z,31.02
2023-03-10T07:38:06.575Z,35.83
2023-03-10T07:40:31.069Z,34.28
2023-03-10T07:42:56.398Z,33.95
2023-03-10T07:45:21.252Z,30.23
2023-03-10T07:47:45.817Z,32.20
2023-03-10T07:50:13.696Z,35.17
2023-03-10T07:52:38.927Z,31.08
2023-03-10T07:55:03.432Z,32.78
2023-03-10T07:57:30.763Z,31.52
2023-03-10T07:59:55.351Z,29.90
2023-03-10T08:02:20.095Z,29.48
2023-03-10T08:04:45.235Z,32.35
2023-03-10T08:07:11.315Z,33.05
2023-03-10T08:09:36.024Z,25.95
2023-03-10T08:12:01.439Z,26.88
2023-03-10T08:14:26.206Z,26.73
2023-03-10T08:16:50.656Z,30.20
2023-03-10T08:19:15.039Z,23.10
2023-03-10T08:21:40.141Z,24.98
2023-03-10T08:24:06.274Z,26.65
2023-03-10T08:26:30.725Z,25.02
2023-03-10T08:28:55.119Z,27.75
2023-03-10T08:31:23.149Z,27.50
2023-03-10T08:33:49.453Z,24.25
2023-03-10T08:36:16.665Z,25.90
2023-03-10T08:38:44.440Z,20.38
2023-03-10T08:41:17.131Z,18.52
2023-03-10T08:43:42.152Z,18.92
2023-03-10T08:46:08.878Z,20.27
2023-03-10T08:48:33.720Z,22.98
2023-03-10T08:50:58.987Z,23.05
2023-03-10T08:53:23.435Z,22.73
2023-03-10T08:55:48.680Z,26.27
2023-03-10T08:58:14.501Z,27.45
2023-03-10T09:00:38.946Z,28.30
2023-03-10T09:03:04.549Z,28.45
2023-03-10T09:05:29.637Z,30.80
2023-03-10T09:07:54.180Z,29.67
2023-03-10T09:10:18.597Z,34.50
2023-03-10T09:12:43.111Z,30.75
2023-03-10T09:15:10.124Z,33.20
2023-03-10T09:17:34.487Z,36.90
2023-03-10T09:19:59.552Z,26.17
2023-03-10T09:22:23.936Z,24.83
2023-03-10T09:24:48.305Z,22.90
2023-03-10T09:27:12.758Z,21.23
2023-03-10T09:29:43.115Z,25.88
2023-03-10T09:32:09.955Z,24.42
2023-03-10T09:34:34.392Z,25.85
2023-03-10T09:36:59.389Z,29.52
2023-03-10T09:39:23.716Z,29.10
2023-03-10T09:42:25.512Z,24.70
2023-03-10T09:45:08.958Z,25.77
2023-03-10T09:47:47.104Z,25.05
2023-03-10T09:50:31.062Z,27.42
2023-03-10T09:53:04.734Z,30.08
2023-03-10T09:55:31.260Z,26.10
2023-03-10T09:57:57.212Z,24.95
2023-03-10T10:00:25.283Z,28.83
2023-03-10T10:02:57.022Z,29.23
2023-03-10T10:05:26.079Z,22.92
2023-03-10T10:07:54.397Z,22.85
2023-03-10T10:10:21.383Z,22.83
2023-03-10T10:12:46.327Z,25.92
2023-03-10T10:15:17.320Z,24.20
2023-03-10T10:17:56.730Z,22.00
2023-03-10T10:20:33.351Z,19.08
2023-03-10T10:22:58.039Z,18.95
2023-03-10T10:25:24.784Z,17.10
2023-03-10T10:27:52.879Z,19.40
2023-03-10T10:30:33.446Z,18.27
2023-03-10T10:32:59.740Z,20.83
2023-03-10T10:35:27.642Z,24.27
2023-03-10T10:38:01.181Z,21.73
2023-03-10T10:40:27.913Z,30.92
2023-03-10T10:42:55.158Z,23.98
2023-03-10T10:45:26.918Z,25.35
2023-03-10T10:47:52.819Z,20.77
2023-03-10T10:50:23.129Z,25.88
2023-03-10T10:52:50.702Z,25.98
2023-03-10T10:55:29.109Z,33.38
2023-03-10T10:57:58.833Z,30.42
2023-03-10T11:00:28.452Z,28.20
2023-03-10T11:02:53.379Z,30.67
2023-03-10T11:05:19.882Z,29.05
2023-03-10T11:07:45.187Z,35.75
2023-03-10T11:10:15.065Z,34.72
2023-03-10T11:15:20.998Z,30.98
2023-03-10T11:17:51.446Z,35.60
2023-03-10T11:20:25.913Z,34.17
2023-03-10T11:22:56.605Z,32.45
2023-03-10T11:25:30.938Z,36.67
2023-03-10T11:28:19.302Z,30.75
2023-03-10T11:30:53.276Z,28.55
2023-03-10T11:33:25.204Z,25.13
2023-03-10T11:35:52.196Z,24.48
2023-03-10T11:38:29.880Z,21.40
2023-03-10T11:40:59.246Z,25.98
2023-03-10T11:43:33.760Z,16.42
2023-03-10T11:46:03.017Z,29.30
2023-03-10T11:51:01.612Z,19.23
2023-03-10T11:53:44.729Z,13.27
2023-03-10T11:56:15.013Z,12.32
2023-03-10T12:03:21.069Z,14.18
2023-03-10T12:05:50.315Z,9.85
2023-03-10T12:08:17.214Z,10.40
2023-03-10T12:10:45.528Z,9.00
2023-03-10T12:13:37.799Z,10.65
2023-03-10T12:16:04.989Z,13.65
2023-03-10T12:18:30.198Z,21.30
2023-03-10T12:21:20.001Z,9.38
2023-03-10T12:26:09.353Z,10.85
2023-03-10T12:28:35.932Z,13.82
2023-03-10T12:31:02.477Z,11.55
2023-03-10T12:34:02.118Z,12.25
2023-03-10T12:36:39.605Z,11.10
2023-03-10T12:39:32.932Z,8.55
2023-03-10T12:41:58.069Z,10.75
2023-03-10T12:44:52.965Z,9.20
2023-03-10T12:47:45.104Z,7.35
2023-03-10T12:50:43.606Z,11.98
2023-03-10T12:53:27.739Z,10.73
2023-03-10T12:56:19.611Z,8.45
2023-03-10T12:58:48.912Z,12.38
2023-03-10T13:01:20.042Z,3.88
2023-03-10T13:03:48.174Z,10.80
2023-03-10T13:06:22.553Z,5.25
2023-03-10T13:08:48.983Z,6.30
2023-03-10T13:11:28.917Z,10.30
2023-03-10T13:13:59.132Z,9.15
2023-03-10T13:16:25.129Z,4.53
2023-03-10T13:18:50.794Z,6.50
2023-03-10T13:21:29.529Z,10.63
2023-03-10T13:23:54.400Z,14.20
2023-03-10T13:26:19.408Z,13.07
2023-03-10T13:28:53.228Z,6.00
2023-03-10T13:31:21.092Z,4.75
2023-03-10T13:33:53.167Z,5.68
2023-03-10T13:36:33.411Z,4.13
2023-03-10T13:38:57.845Z,45.58
2023-03-10T13:41:22.327Z,17.55
2023-03-10T13:43:48.617Z,5.50
2023-03-10T13:46:17.477Z,99.07
2023-03-10T13:48:44.068Z,10.38
2023-03-10T13:51:19.136Z,91.53
2023-03-10T13:53:43.876Z,36.40
2023-03-10T13:56:18.997Z,5.50
2023-03-10T13:58:44.751Z,22.80
2023-03-10T14:01:13.509Z,18.58
2023-03-10T14:03:38.579Z,8.25
2023-03-10T14:06:15.434Z,7.97
2023-03-10T14:08:39.856Z,5.85
2023-03-10T14:11:42.475Z,7.38
2023-03-10T14:14:08.104Z,10.15
2023-03-10T14:16:47.602Z,5.63
2023-03-10T14:19:13.506Z,8.85
2023-03-10T14:21:52.446Z,12.20
2023-03-10T14:24:24.478Z,5.05
2023-03-10T14:26:48.916Z,2.83
2023-03-10T14:29:16.546Z,8.10
2023-03-10T14:31:40.982Z,3.15
2023-03-10T14:34:05.838Z,5.25
2023-03-10T14:36:30.472Z,7.85
2023-03-10T14:38:56.231Z,6.97
2023-03-10T14:41:25.181Z,5.38
2023-03-10T14:43:49.672Z,10.27
2023-03-10T14:46:14.462Z,5.30
2023-03-10T14:48:41.979Z,7.05
2023-03-10T14:51:07.218Z,7.00
2023-03-10T14:53:33.652Z,3.10
2023-03-10T14:56:02.628Z,7.10
2023-03-10T14:58:31.123Z,7.07
2023-03-10T15:00:55.764Z,8.15
2023-03-10T15:03:20.308Z,6.78
2023-03-10T15:05:49.062Z,6.95
2023-03-10T15:08:15.919Z,7.33
2023-03-10T15:10:44.278Z,11.30
2023-03-10T15:13:13.485Z,10.88
2023-03-10T15:15:41.600Z,8.23
2023-03-10T15:18:06.372Z,8.07
2023-03-10T15:20:30.726Z,10.68
2023-03-10T15:22:55.194Z,9.25
2023-03-10T15:25:21.879Z,5.82
2023-03-10T15:27:48.397Z,5.78
2023-03-10T15:30:21.723Z,6.95
2023-03-10T15:32:46.528Z,10.45
2023-03-10T15:35:11.996Z,9.15
2023-03-10T15:37:36.485Z,7.45
2023-03-10T15:40:03.782Z,15.60
2023-03-10T15:42:28.428Z,24.15
2023-03-10T15:44:52.968Z,9.85
2023-03-10T15:47:18.917Z,17.65
2023-03-10T15:49:43.545Z,11.82
2023-03-10T15:52:08.393Z,11.63
2023-03-10T15:54:34.809Z,19.88
2023-03-10T15:56:59.442Z,20.27
2023-03-10T15:59:23.877Z,13.05
2023-03-10T16:01:48.435Z,11.75
2023-03-10T16:04:14.451Z,9.80
2023-03-10T16:06:39.027Z,15.23
2023-03-10T16:09:05.574Z,8.55
2023-03-10T16:11:30.840Z,11.45
2023-03-10T16:13:55.316Z,13.82
2023-03-10T16:16:23.400Z,10.05
2023-03-10T16:18:48.674Z,12.55
2023-03-10T16:21:17.941Z,9.48
2023-03-10T16:23:43.165Z,15.65
2023-03-10T16:26:11.505Z,14.00
2023-03-10T16:28:36.253Z,9.95
2023-03-10T16:31:02.762Z,15.68
2023-03-10T16:33:27.912Z,10.45
2023-03-10T16:35:52.581Z,12.65
2023-03-10T16:38:22.682Z,16.42
2023-03-10T16:40:51.500Z,13.57
2023-03-10T16:43:16.768Z,16.83
2023-03-10T16:45:41.671Z,20.23
2023-03-10T16:48:06.660Z,8.25
2023-03-10T16:50:35.578Z,7.53
2023-03-10T16:53:02.274Z,6.13
2023-03-10T16:55:28.009Z,8.23
2023-03-10T16:57:52.630Z,9.43
2023-03-10T17:00:21.976Z,5.55
2023-03-10T17:02:46.416Z,6.65
2023-03-10T17:05:12.654Z,6.97
2023-03-10T17:07:46.399Z,9.80
2023-03-10T17:10:14.243Z,11.82
2023-03-10T17:12:40.270Z,8.20
2023-03-10T17:15:05.490Z,8.15
2023-03-10T17:17:30.886Z,6.95
2023-03-10T17:19:55.304Z,8.07
2023-03-10T17:22:19.673Z,10.55
2023-03-10T17:24:44.336Z,9.95
2023-03-10T17:27:09.102Z,11.73
2023-03-10T17:29:34.981Z,9.65
2023-03-10T17:31:59.475Z,9.93
2023-03-10T17:34:24.026Z,16.00
2023-03-10T17:36:51.174Z,16.98
2023-03-10T17:39:19.321Z,14.43
2023-03-10T17:41:44.078Z,16.67
2023-03-10T17:44:08.557Z,11.73
2023-03-10T17:46:34.481Z,13.18
2023-03-10T17:49:00.169Z,16.60
2023-03-10T17:51:27.428Z,15.80
2023-03-10T17:53:53.475Z,12.27
2023-03-10T17:56:18.577Z,14.30
2023-03-10T17:58:43.584Z,12.43
2023-03-10T18:01:09.408Z,10.77
2023-03-10T18:03:35.757Z,8.88
2023-03-10T18:06:00.200Z,9.32
2023-03-10T18:08:25.826Z,11.45
2023-03-10T18:11:01.207Z,15.88
2023-03-10T18:13:25.621Z,15.75
2023-03-10T18:15:51.683Z,10.75
2023-03-10T18:18:16.164Z,13.15
2023-03-10T18:20:42.817Z,14.18
2023-03-10T18:23:07.350Z,13.43
2023-03-10T18:25:31.727Z,9.68
2023-03-10T18:27:56.216Z,12.52
2023-03-10T18:30:21.547Z,18.27
2023-03-10T18:32:46.215Z,14.23
2023-03-10T18:35:12.165Z,14.77
2023-03-10T18:37:38.316Z,14.63
2023-03-10T18:40:04.187Z,15.82
2023-03-10T18:42:30.260Z,15.77
2023-03-10T18:44:55.713Z,15.23
2023-03-10T18:47:20.650Z,16.25
2023-03-10T18:49:45.105Z,20.08
2023-03-10T18:52:09.761Z,14.75
2023-03-10T18:54:36.104Z,18.02
2023-03-10T18:57:01.976Z,15.02
2023-03-10T18:59:26.599Z,15.23
2023-03-10T19:01:51.392Z,16.92
2023-03-10T19:04:16.386Z,15.25
2023-03-10T19:06:41.279Z,16.90
2023-03-10T19:09:08.691Z,21.75
2023-03-10T19:11:38.314Z,20.20
2023-03-10T19:14:05.457Z,19.40
2023-03-10T19:16:30.344Z,20.10
2023-03-10T19:18:54.900Z,18.15
2023-03-10T19:21:21.938Z,15.27
2023-03-10T19:23:48.576Z,17.35
2023-03-10T19:26:13.771Z,21.05
2023-03-10T19:28:39.824Z,18.80
2023-03-10T19:31:09.869Z,17.92
2023-03-10T19:33:34.322Z,17.45
2023-03-10T19:36:03.330Z,16.75
2023-03-10T19:38:28.382Z,17.77
2023-03-10T19:40:53.243Z,16.95
2023-03-10T19:43:17.701Z,15.85
2023-03-10T19:45:46.336Z,20.55
2023-03-10T19:48:11.156Z,18.98
2023-03-10T19:50:35.797Z,22.27
2023-03-10T19:53:00.400Z,21.27
2023-03-10T19:55:26.660Z,22.40
2023-03-10T19:57:52.860Z,22.33
2023-03-10T20:00:20.748Z,18.83
2023-03-10T20:02:47.203Z,17.73
2023-03-10T20:05:14.250Z,18.98
2023-03-10T20:07:39.579Z,19.08
2023-03-10T20:10:05.008Z,21.55
2023-03-10T20:12:30.769Z,18.63
2023-03-10T20:14:58.734Z,23.83
2023-03-10T20:17:23.442Z,24.35
2023-03-10T20:19:49.386Z,20.13
2023-03-10T20:22:18.797Z,18.45
2023-03-10T20:24:44.607Z,17.85
2023-03-10T20:27:09.213Z,18.77
2023-03-10T20:29:33.827Z,17.63
2023-03-10T20:31:58.344Z,14.88
2023-03-10T20:34:22.977Z,13.63
2023-03-10T20:36:49.763Z,18.63
2023-03-10T20:39:14.308Z,16.25
2023-03-10T20:41:39.030Z,20.30
2023-03-10T20:44:06.588Z,16.88
2023-03-10T20:46:31.867Z,17.67
2023-03-10T20:48:56.346Z,17.00
2023-03-10T20:51:22.730Z,18.55
2023-03-10T20:53:49.340Z,16.73
2023-03-10T20:56:14.709Z,20.20
2023-03-10T20:58:39.638Z,18.10
2023-03-10T21:01:04.313Z,20.83
2023-03-10T21:03:28.873Z,17.98
2023-03-10T21:05:53.413Z,18.00
2023-03-10T21:08:18.178Z,23.08
2023-03-10T21:10:44.870Z,18.05
2023-03-10T21:13:09.612Z,20.15
2023-03-10T21:15:34.383Z,20.85
2023-03-10T21:17:59.025Z,21.25
2023-03-10T21:20:25.608Z,21.00
2023-03-10T21:22:50.941Z,15.95
2023-03-10T21:25:17.251Z,21.02
2023-03-10T21:27:44.345Z,19.90
2023-03-10T21:30:11.821Z,21.02
2023-03-10T21:32:36.404Z,19.55
2023-03-10T21:35:03.427Z,23.75
2023-03-10T21:37:28.302Z,21.98
2023-03-10T21:39:53.965Z,23.40
2023-03-10T21:42:18.342Z,20.67
2023-03-10T21:44:44.356Z,24.10
2023-03-10T21:47:08.765Z,24.63
2023-03-10T21:49:33.738Z,23.98
2023-03-10T21:51:58.169Z,26.67
2023-03-10T21:54:24.355Z,26.75
2023-03-10T21:56:48.950Z,26.05
2023-03-10T21:59:13.371Z,27.10
2023-03-10T22:01:39.336Z,35.10
2023-03-10T22:04:04.805Z,29.92
2023-03-10T22:06:29.271Z,31.05
2023-03-10T22:08:53.806Z,27.42
2023-03-10T22:11:18.299Z,27.30
2023-03-10T22:13:43.480Z,28.95
2023-03-10T22:16:10.667Z,29.63
2023-03-10T22:18:36.604Z,24.85
2023-03-10T22:21:01.336Z,21.25
2023-03-10T22:23:26.963Z,27.02
2023-03-10T22:25:51.367Z,21.88
2023-03-10T22:28:16.216Z,25.17
2023-03-10T22:30:41.507Z,23.08
2023-03-10T22:33:06.994Z,19.55
2023-03-10T22:35:32.923Z,20.23
2023-03-10T22:37:57.600Z,22.70
2023-03-10T22:40:24.154Z,24.98
2023-03-10T22:42:49.260Z,17.42
2023-03-10T22:45:18.748Z,17.52
2023-03-10T22:47:43.383Z,17.23
2023-03-10T22:50:08.653Z,20.38
2023-03-10T22:52:34.703Z,19.10
2023-03-10T22:55:00.610Z,18.83
2023-03-10T22:57:27.324Z,18.25
2023-03-10T22:59:51.958Z,19.92
2023-03-10T23:02:16.850Z,18.98
2023-03-10T23:04:41.229Z,20.92
2023-03-10T23:07:05.980Z,20.05
2023-03-10T23:09:32.180Z,18.50
2023-03-10T23:11:56.691Z,21.10
2023-03-10T23:14:21.449Z,18.92
2023-03-10T23:16:45.935Z,19.40
2023-03-10T23:19:10.364Z,21.50
2023-03-10T23:21:35.585Z,19.42
2023-03-10T23:24:00.188Z,18.88
2023-03-10T23:26:27.245Z,18.02
2023-03-10T23:28:51.792Z,19.60
2023-03-10T23:31:17.179Z,19.95
2023-03-10T23:33:41.657Z,17.10
2023-03-10T23:36:06.954Z,17.27
2023-03-10T23:38:31.324Z,17.25
2023-03-10T23:40:56.263Z,15.57
2023-03-10T23:43:22.498Z,15.07
2023-03-10T23:45:49.515Z,17.63
2023-03-10T23:48:17.216Z,18.15
2023-03-10T23:50:44.262Z,15.55
2023-03-10T23:53:09.971Z,18.50
2023-03-10T23:55:37.243Z,21.08
2023-03-10T23:58:02.539Z,19.15
